Time;durP1;ratioP1;P1;durP2;ratioP2;P2;SDS_P1;SDS_P2;PMS_P1;PMS_P2;Temp;Humidity;BMP_temperature;BMP_pressure;BME280_temperature;BME280_humidity;BME280_pressure;Samples;Min_cycle;Max_cycle;Signal;HPM_P1;HPM_P2
2022/10/21 00:02:15;;;;;;;14.30;8.30;;;;;;;10.44;100.00;100368.63;5223762;28;20506;-74
2022/10/21 00:04:46;;;;;;;15.35;9.20;;;;;;;10.29;100.00;100360.50;5224170;28;20035;-73
2022/10/21 00:07:16;;;;;;;11.82;8.48;;;;;;;10.32;100.00;100361.25;5223913;28;20091;-74
2022/10/21 00:09:46;;;;;;;14.32;9.13;;;;;;;10.38;100.00;100363.59;5223869;28;20092;-74
2022/10/21 00:12:17;;;;;;;16.05;8.52;;;;;;;10.50;100.00;100362.31;5223776;28;20033;-73
2022/10/21 00:14:47;;;;;;;15.38;8.70;;;;;;;10.51;100.00;100353.56;5223923;28;20096;-74
2022/10/21 00:17:17;;;;;;;15.43;8.13;;;;;;;10.45;100.00;100359.00;5223407;28;20605;-75
2022/10/21 00:19:48;;;;;;;15.52;8.55;;;;;;;10.41;100.00;100362.66;5223567;28;20167;-73
2022/10/21 00:22:18;;;;;;;14.98;8.55;;;;;;;10.42;100.00;100362.59;5218331;28;20028;-73
2022/10/21 00:24:48;;;;;;;17.70;9.02;;;;;;;10.40;100.00;100361.81;5213415;28;20395;-74
2022/10/21 00:27:18;;;;;;;13.35;8.02;;;;;;;10.45;100.00;100357.25;5222131;28;20155;-73
2022/10/21 00:29:49;;;;;;;10.68;7.47;;;;;;;10.53;100.00;100339.50;5202425;28;20028;-74
2022/10/21 00:32:19;;;;;;;16.65;9.20;;;;;;;10.56;100.00;100339.41;5222389;28;20545;-73
2022/10/21 00:34:49;;;;;;;13.55;8.57;;;;;;;10.62;100.00;100323.47;5221098;28;20482;-73
2022/10/21 00:37:20;;;;;;;15.98;9.65;;;;;;;10.66;100.00;100313.78;5223015;28;20545;-74
2022/10/21 00:39:51;;;;;;;16.38;8.80;;;;;;;10.61;100.00;100310.47;5223000;28;20033;-74
2022/10/21 00:42:27;;;;;;;15.93;8.80;;;;;;;10.61;100.00;100300.88;5222891;28;20028;-74
2022/10/21 00:45:14;;;;;;;16.65;9.00;;;;;;;10.60;100.00;100314.88;5222339;28;20126;-74
2022/10/21 00:47:54;;;;;;;14.05;7.75;;;;;;;10.89;100.00;100305.84;5222420;28;20032;-74
2022/10/21 00:50:39;;;;;;;14.70;8.05;;;;;;;10.81;100.00;100300.91;5219405;28;20055;-74
2022/10/21 00:53:13;;;;;;;12.10;7.90;;;;;;;10.75;100.00;100290.72;5247646;22;20041;-78
2022/10/21 00:55:48;;;;;;;13.07;8.50;;;;;;;10.72;100.00;100298.66;5220206;28;20577;-76
2022/10/21 00:58:23;;;;;;;11.43;7.07;;;;;;;10.75;100.00;100302.94;5222011;28;20037;-76
2022/10/21 01:00:56;;;;;;;12.55;7.75;;;;;;;10.88;100.00;100304.97;5222288;28;20063;-76
2022/10/21 01:03:28;;;;;;;15.02;7.95;;;;;;;10.82;100.00;100299.19;5239365;28;20082;-76
2022/10/21 01:06:01;;;;;;;12.52;7.93;;;;;;;10.73;100.00;100289.06;5243327;28;20064;-76
2022/10/21 01:08:32;;;;;;;12.45;7.28;;;;;;;10.78;100.00;100295.81;5222646;28;20107;-76
2022/10/21 01:11:04;;;;;;;12.20;8.02;;;;;;;10.74;100.00;100290.78;5224566;28;20123;-76
2022/10/21 01:14:13;;;;;;;9.48;7.03;;;;;;;10.77;100.00;100281.06;5243182;28;20024;-75
2022/10/21 01:16:46;;;;;;;13.02;8.23;;;;;;;10.85;100.00;100278.13;5241309;28;20060;-76
2022/10/21 01:20:01;;;;;;;14.20;9.02;;;;;;;10.97;100.00;100262.78;5242470;28;20105;-76
2022/10/21 01:23:00;;;;;;;15.20;9.15;;;;;;;10.96;100.00;100260.22;5168221;28;20403;-76
2022/10/21 01:25:56;;;;;;;13.00;8.35;;;;;;;10.87;100.00;100256.22;5141512;28;20471;-76
2022/10/21 01:28:30;;;;;;;16.02;8.50;;;;;;;10.90;100.00;100258.72;5234020;28;20032;-76
2022/10/21 01:31:19;;;;;;;12.60;8.27;;;;;;;10.97;100.00;100261.91;5242582;28;20432;-76
2022/10/21 01:34:22;;;;;;;13.85;8.27;;;;;;;10.94;100.00;100256.81;5240310;28;20115;-75
2022/10/21 01:37:01;;;;;;;14.50;8.15;;;;;;;10.96;100.00;100247.13;5238170;28;20106;-76
2022/10/21 01:39:45;;;;;;;13.15;8.35;;;;;;;10.91;100.00;100247.34;5242574;28;20025;-76
2022/10/21 01:42:15;;;;;;;13.15;8.82;;;;;;;10.90;100.00;100260.47;5242341;28;20070;-76
2022/10/21 01:45:08;;;;;;;13.32;8.18;;;;;;;10.87;100.00;100255.38;5242082;28;20095;-76
2022/10/21 01:47:45;;;;;;;16.42;8.60;;;;;;;10.93;100.00;100257.72;5240340;28;20054;-76
2022/10/21 01:50:28;;;;;;;11.05;7.78;;;;;;;10.92;100.00;100253.41;5242101;28;20037;-76
2022/10/21 01:53:07;;;;;;;12.40;8.45;;;;;;;11.02;100.00;100251.22;5239108;28;20036;-76
2022/10/21 01:55:39;;;;;;;13.68;7.72;;;;;;;11.06;100.00;100241.44;5241531;28;20044;-76
2022/10/21 01:58:17;;;;;;;14.27;8.70;;;;;;;11.17;100.00;100234.88;5242276;28;20035;-76
2022/10/21 02:00:50;;;;;;;13.40;7.63;;;;;;;11.02;100.00;100228.59;5241536;28;20048;-76
2022/10/21 02:03:29;;;;;;;10.43;7.30;;;;;;;11.04;100.00;100233.69;5241908;28;20024;-76
2022/10/21 02:05:59;;;;;;;12.52;7.82;;;;;;;10.95;100.00;100228.00;5242243;28;20029;-77
2022/10/21 02:08:29;;;;;;;11.52;7.90;;;;;;;10.90;100.00;100235.19;5220913;28;20214;-76
2022/10/21 02:11:04;;;;;;;12.75;8.18;;;;;;;10.92;100.00;100219.44;5241631;28;20066;-77
2022/10/21 02:13:42;;;;;;;12.52;7.85;;;;;;;10.87;100.00;100213.56;5221287;28;20501;-76
2022/10/21 02:16:16;;;;;;;12.15;7.47;;;;;;;10.93;100.00;100213.28;5241117;28;20028;-75
2022/10/21 02:18:46;;;;;;;14.07;8.18;;;;;;;11.08;100.00;100203.88;5241390;28;20024;-76
2022/10/21 02:21:21;;;;;;;13.88;7.88;;;;;;;11.27;100.00;100204.75;5241351;28;20031;-76
2022/10/21 02:23:54;;;;;;;12.35;8.43;;;;;;;11.30;100.00;100201.16;5241527;28;20020;-76
2022/10/21 02:26:26;;;;;;;12.70;8.00;;;;;;;11.45;100.00;100201.31;5223462;28;20552;-76
2022/10/21 02:28:58;;;;;;;15.43;9.40;;;;;;;11.40;100.00;100187.59;5240791;28;20044;-76
2022/10/21 02:31:34;;;;;;;11.70;8.25;;;;;;;11.40;100.00;100189.34;5223801;28;20024;-76
2022/10/21 02:34:29;;;;;;;13.85;8.18;;;;;;;11.37;100.00;100194.72;5241615;28;20143;-77
2022/10/21 02:37:13;;;;;;;12.07;7.95;;;;;;;11.34;100.00;100190.50;5238153;28;20138;-76
2022/10/21 02:39:54;;;;;;;12.30;8.70;;;;;;;11.37;100.00;100198.22;5241049;28;20114;-77
2022/10/21 02:42:30;;;;;;;16.40;8.88;;;;;;;11.41;100.00;100191.91;5241966;28;20111;-76
2022/10/21 02:45:01;;;;;;;;;;;;;;;11.43;100.00;100192.69;5241505;28;20310;-76
2022/10/21 02:47:31;;;;;;;12.05;8.38;;;;;;;11.39;100.00;100200.75;5239899;28;19912;-77
2022/10/21 02:50:01;;;;;;;13.15;8.18;;;;;;;11.38;100.00;100202.53;5241439;28;20035;-77
2022/10/21 02:52:32;;;;;;;12.88;7.82;;;;;;;11.41;100.00;100202.38;5241243;28;20488;-77
2022/10/21 02:55:02;;;;;;;12.43;8.25;;;;;;;11.50;100.00;100199.38;5243950;28;20033;-77
2022/10/21 02:57:32;;;;;;;18.27;8.63;;;;;;;11.58;100.00;100189.41;5243132;28;20035;-77
2022/10/21 03:00:04;;;;;;;11.50;7.85;;;;;;;11.49;100.00;100178.47;5241340;28;20112;-76
2022/10/21 03:02:35;;;;;;;15.95;8.40;;;;;;;11.48;100.00;100172.38;5241436;28;20028;-77
2022/10/21 03:05:06;;;;;;;13.15;7.97;;;;;;;11.57;100.00;100171.16;5241567;28;20501;-77
2022/10/21 03:07:36;;;;;;;12.93;8.15;;;;;;;11.61;100.00;100162.25;5240818;28;20032;-77
2022/10/21 03:10:07;;;;;;;12.60;8.60;;;;;;;11.65;100.00;100169.88;5240846;28;20032;-77
2022/10/21 03:12:37;;;;;;;13.68;8.52;;;;;;;11.59;100.00;100164.09;5241013;28;20028;-77
2022/10/21 03:15:08;;;;;;;17.45;9.32;;;;;;;11.54;100.00;100156.44;5241045;28;20097;-77
2022/10/21 03:17:38;;;;;;;12.60;9.13;;;;;;;11.56;100.00;100149.38;5240423;28;20029;-77
2022/10/21 03:20:09;;;;;;;19.30;9.05;;;;;;;11.67;100.00;100141.91;5241041;28;20037;-77
2022/10/21 03:22:39;;;;;;;12.05;8.82;;;;;;;11.59;100.00;100144.00;5240770;28;20060;-77
2022/10/21 03:25:10;;;;;;;13.43;8.93;;;;;;;11.65;100.00;100143.69;5241276;28;20425;-77
2022/10/21 03:27:41;;;;;;;15.32;8.50;;;;;;;11.57;100.00;100138.00;5240578;28;20340;-77
2022/10/21 03:30:11;;;;;;;14.57;8.48;;;;;;;11.58;100.00;100137.06;5240376;28;20351;-77
2022/10/21 03:32:41;;;;;;;12.93;8.35;;;;;;;11.54;100.00;100129.38;5240867;28;20432;-76
2022/10/21 03:35:11;;;;;;;14.95;9.18;;;;;;;11.53;100.00;100133.78;5240933;28;20044;-77
2022/10/21 03:37:42;;;;;;;13.18;8.52;;;;;;;11.57;100.00;100127.53;5240954;28;20156;-77
2022/10/21 03:40:12;;;;;;;14.65;8.55;;;;;;;11.66;100.00;100119.25;5240868;28;20430;-77
2022/10/21 03:42:42;;;;;;;11.63;7.95;;;;;;;11.65;100.00;100135.84;5240573;28;20025;-76
2022/10/21 03:45:13;;;;;;;14.15;8.32;;;;;;;11.76;100.00;100119.66;5240910;28;20471;-77
2022/10/21 03:47:43;;;;;;;12.40;8.57;;;;;;;11.71;100.00;100112.03;5225036;28;20024;-76
2022/10/21 03:50:13;;;;;;;11.70;7.68;;;;;;;11.69;100.00;100119.09;5244271;28;20028;-77
2022/10/21 03:52:44;;;;;;;13.80;7.95;;;;;;;11.67;100.00;100110.47;5241674;28;20063;-77
2022/10/21 03:55:16;;;;;;;13.27;8.00;;;;;;;11.66;100.00;100107.91;5243930;28;20484;-77
2022/10/21 03:57:47;;;;;;;9.93;6.97;;;;;;;11.66;100.00;100100.94;5241782;28;20024;-77
2022/10/21 04:00:17;;;;;;;12.55;7.78;;;;;;;11.65;100.00;100096.59;5244473;28;20061;-77
2022/10/21 04:02:48;;;;;;;16.55;8.18;;;;;;;11.66;100.00;100098.31;5244530;28;20024;-77
2022/10/21 04:05:18;;;;;;;11.65;7.45;;;;;;;11.72;100.00;100092.78;5244603;28;20374;-77
2022/10/21 04:07:48;;;;;;;12.18;7.40;;;;;;;11.66;100.00;100081.75;5243823;28;20504;-77
2022/10/21 04:10:19;;;;;;;11.98;7.65;;;;;;;11.67;100.00;100084.31;5243704;28;20064;-77
2022/10/21 04:12:49;;;;;;;13.35;7.80;;;;;;;11.65;100.00;100090.53;5244301;28;20529;-77
2022/10/21 04:15:20;;;;;;;14.80;7.70;;;;;;;11.78;100.00;100076.75;5244026;28;20039;-77
2022/10/21 04:17:50;;;;;;;10.52;7.20;;;;;;;11.70;100.00;100081.53;5243812;28;20339;-76
2022/10/21 04:20:20;;;;;;;12.65;7.82;;;;;;;11.73;100.00;100084.00;5244142;28;20068;-77
2022/10/21 04:22:51;;;;;;;9.55;7.22;;;;;;;11.72;100.00;100089.28;5222469;28;20029;-77
2022/10/21 04:25:21;;;;;;;10.95;6.95;;;;;;;11.76;100.00;100081.22;5226478;28;20024;-76
2022/10/21 04:27:51;;;;;;;19.27;8.75;;;;;;;11.83;100.00;100064.31;5243976;28;20036;-76
2022/10/21 04:30:22;;;;;;;12.85;7.43;;;;;;;11.87;100.00;100062.38;5243583;28;20509;-77
2022/10/21 04:32:52;;;;;;;10.68;7.50;;;;;;;11.85;100.00;100062.47;5215473;28;20094;-77
2022/10/21 04:35:22;;;;;;;12.65;7.07;;;;;;;11.90;100.00;100059.59;5243583;28;20466;-77
2022/10/21 04:37:52;;;;;;;16.23;8.10;;;;;;;11.96;100.00;100061.94;5243314;28;20029;-77
2022/10/21 04:40:23;;;;;;;12.35;8.13;;;;;;;11.97;100.00;100055.78;5243602;28;20069;-77
2022/10/21 04:42:53;;;;;;;15.45;8.00;;;;;;;11.94;100.00;100062.00;5224643;28;20514;-77
2022/10/21 04:45:23;;;;;;;14.75;8.13;;;;;;;11.98;100.00;100071.41;5243142;28;20113;-77
2022/10/21 04:47:54;;;;;;;17.98;8.45;;;;;;;12.05;100.00;100071.94;5243192;28;20024;-77
2022/10/21 04:50:24;;;;;;;11.38;7.63;;;;;;;12.04;100.00;100065.88;5243117;28;20316;-77
2022/10/21 04:52:54;;;;;;;12.88;8.05;;;;;;;11.93;100.00;100068.16;5243167;28;20309;-77
2022/10/21 04:55:24;;;;;;;12.98;8.18;;;;;;;11.93;100.00;100068.16;5243102;28;20036;-77
2022/10/21 04:57:55;;;;;;;14.45;9.27;;;;;;;11.85;100.00;100072.94;5241899;28;20032;-77
2022/10/21 05:00:25;;;;;;;17.90;9.15;;;;;;;11.92;100.00;100071.72;5243344;28;20017;-77
2022/10/21 05:02:55;;;;;;;17.38;9.50;;;;;;;11.94;100.00;100062.00;5243307;28;20075;-77
2022/10/21 05:05:26;;;;;;;19.38;9.25;;;;;;;11.93;100.00;100070.78;5243295;28;20025;-77
2022/10/21 05:07:56;;;;;;;14.88;9.23;;;;;;;11.98;100.00;100074.00;5242825;28;20017;-77
2022/10/21 05:10:29;;;;;;;11.82;8.75;;;;;;;12.03;100.00;100072.03;5242043;28;20485;-77
2022/10/21 05:12:59;;;;;;;13.93;8.82;;;;;;;11.97;100.00;100067.09;5243266;28;20081;-77
2022/10/21 05:15:29;;;;;;;15.43;9.00;;;;;;;11.91;100.00;100058.69;5216791;28;20029;-77
2022/10/21 05:17:59;;;;;;;14.90;9.57;;;;;;;11.91;100.00;100056.91;5240338;28;20029;-77
2022/10/21 05:20:30;;;;;;;15.10;9.15;;;;;;;11.99;100.00;100052.13;5242733;28;20541;-77
2022/10/21 05:23:00;;;;;;;16.00;9.25;;;;;;;11.93;100.00;100064.72;5243288;28;20270;-77
2022/10/21 05:25:30;;;;;;;13.75;9.20;;;;;;;11.89;100.00;100063.16;5225266;28;20308;-77
2022/10/21 05:28:01;;;;;;;15.23;8.93;;;;;;;11.80;100.00;100058.38;5243035;28;20116;-77
2022/10/21 05:30:31;;;;;;;11.95;9.07;;;;;;;11.79;100.00;100049.66;5242390;28;20020;-77
2022/10/21 05:33:01;;;;;;;13.75;8.90;;;;;;;11.90;100.00;100055.22;5241782;28;20059;-77
2022/10/21 05:35:32;;;;;;;13.73;8.73;;;;;;;11.78;100.00;100063.69;5241157;28;20447;-77
2022/10/21 05:38:03;;;;;;;12.85;9.02;;;;;;;11.77;100.00;100059.34;5241408;28;20023;-77
2022/10/21 05:40:33;;;;;;;16.23;9.77;;;;;;;11.74;100.00;100048.19;5242130;28;20123;-78
2022/10/21 05:43:04;;;;;;;14.55;8.88;;;;;;;11.78;100.00;100044.50;5241998;28;20104;-77
2022/10/21 05:45:34;;;;;;;16.15;9.18;;;;;;;11.79;100.00;100044.44;5242037;28;20020;-76
2022/10/21 05:48:04;;;;;;;14.65;9.40;;;;;;;11.71;100.00;100045.72;5241652;28;20082;-77
2022/10/21 05:50:34;;;;;;;15.88;9.02;;;;;;;11.71;100.00;100040.47;5242195;28;20037;-77
2022/10/21 05:53:05;;;;;;;15.65;8.68;;;;;;;11.66;100.00;100050.34;5241993;28;20114;-77
2022/10/21 05:55:35;;;;;;;16.48;9.90;;;;;;;11.62;100.00;100044.38;5241445;28;20393;-77
2022/10/21 05:58:05;;;;;;;14.60;9.60;;;;;;;11.58;100.00;100048.09;5241436;28;20056;-77
2022/10/21 06:00:36;;;;;;;14.18;9.02;;;;;;;11.59;100.00;100054.19;5242220;28;20363;-77
2022/10/21 06:03:06;;;;;;;16.08;8.75;;;;;;;11.55;100.00;100047.34;5242357;28;20024;-77
2022/10/21 06:05:36;;;;;;;12.07;8.35;;;;;;;11.52;100.00;100042.25;5240811;28;20285;-77
2022/10/21 06:08:06;;;;;;;11.52;7.85;;;;;;;11.56;100.00;100046.44;5241877;28;20382;-77
2022/10/21 06:10:37;;;;;;;16.08;8.65;;;;;;;11.48;100.00;100051.19;5241718;28;20036;-77
2022/10/21 06:13:07;;;;;;;15.07;9.00;;;;;;;11.48;100.00;100046.78;5241884;28;20028;-77
2022/10/21 06:15:38;;;;;;;10.77;7.97;;;;;;;11.52;100.00;100044.88;5241599;28;20036;-77
2022/10/21 06:18:08;;;;;;;12.70;8.40;;;;;;;11.53;100.00;100043.97;5241078;28;20820;-77
2022/10/21 06:20:38;;;;;;;12.93;8.13;;;;;;;11.58;100.00;100044.63;5242436;28;20413;-77
2022/10/21 06:23:11;;;;;;;14.18;8.95;;;;;;;11.59;100.00;100047.16;5241831;28;20119;-77
2022/10/21 06:25:42;;;;;;;13.48;8.63;;;;;;;11.63;100.00;100046.09;5241364;28;20311;-77
2022/10/21 06:28:13;;;;;;;11.50;8.05;;;;;;;11.64;100.00;100042.53;5241014;28;20486;-77
2022/10/21 06:30:43;;;;;;;12.43;7.95;;;;;;;11.68;100.00;100049.34;5241510;28;20032;-77
2022/10/21 06:33:13;;;;;;;14.32;8.77;;;;;;;11.69;100.00;100051.03;5241437;28;20024;-76
2022/10/21 06:35:43;;;;;;;14.27;7.95;;;;;;;11.74;100.00;100045.56;5241889;28;20020;-77
2022/10/21 06:38:14;;;;;;;14.25;8.50;;;;;;;11.80;100.00;100043.50;5241242;28;20459;-77
2022/10/21 06:40:45;;;;;;;12.52;8.18;;;;;;;11.91;100.00;100046.44;5241794;28;20470;-77
2022/10/21 06:43:15;;;;;;;11.85;8.55;;;;;;;12.00;100.00;100058.25;5241345;28;20064;-77
2022/10/21 06:45:45;;;;;;;15.00;8.40;;;;;;;12.08;100.00;100059.56;5241377;28;20024;-77
2022/10/21 06:48:16;;;;;;;15.07;8.35;;;;;;;12.27;100.00;100051.63;5240860;28;20017;-77
2022/10/21 06:50:46;;;;;;;12.43;8.38;;;;;;;12.31;100.00;100046.13;5222774;28;20074;-77
2022/10/21 06:53:16;;;;;;;13.75;7.93;;;;;;;12.45;100.00;100055.94;5252178;22;20040;-73
2022/10/21 06:55:46;;;;;;;13.25;8.68;;;;;;;12.44;100.00;100060.31;5217540;28;20438;-74
2022/10/21 06:58:17;;;;;;;12.73;8.23;;;;;;;12.52;100.00;100071.28;5216978;28;20029;-74
2022/10/21 07:00:47;;;;;;;14.07;8.20;;;;;;;12.48;100.00;100072.31;5200794;28;20512;-74
2022/10/21 07:03:17;;;;;;;13.15;8.73;;;;;;;12.47;100.00;100073.25;5230263;28;20029;-73
2022/10/21 07:05:47;;;;;;;13.77;7.65;;;;;;;12.53;100.00;100067.72;5239838;28;20033;-74
2022/10/21 07:08:18;;;;;;;14.85;8.35;;;;;;;12.54;100.00;100066.78;5222481;28;20309;-74
2022/10/21 07:10:48;;;;;;;14.70;8.50;;;;;;;12.58;100.00;100070.94;5240876;28;20108;-74
2022/10/21 07:13:18;;;;;;;17.75;9.55;;;;;;;12.63;100.00;100084.66;5239778;28;20094;-74
2022/10/21 07:16:00;;;;;;;14.07;9.27;;;;;;;12.68;100.00;100087.03;5240669;28;20075;-74
2022/10/21 07:18:31;;;;;;;15.50;9.38;;;;;;;12.80;100.00;100089.88;5238067;28;20577;-74
2022/10/21 07:21:07;;;;;;;15.93;9.82;;;;;;;12.79;100.00;100096.03;5240442;28;20037;-74
2022/10/21 07:23:38;;;;;;;14.05;9.35;;;;;;;12.80;100.00;100089.88;5239560;28;20032;-74
2022/10/21 07:26:08;;;;;;;15.57;9.57;;;;;;;12.86;100.00;100100.06;5239767;28;21533;-74
2022/10/21 07:28:40;;;;;;;16.63;9.68;;;;;;;13.04;100.00;100091.25;5239556;28;20039;-74
2022/10/21 07:31:10;;;;;;;17.90;10.13;;;;;;;13.13;100.00;100093.38;5221386;28;20021;-73
2022/10/21 07:33:41;;;;;;;14.50;9.48;;;;;;;13.22;100.00;100095.50;5240779;28;20029;-74
2022/10/21 07:36:19;;;;;;;14.15;9.13;;;;;;;13.22;100.00;100095.50;5244075;28;20040;-73
2022/10/21 07:38:51;;;;;;;15.60;8.98;;;;;;;13.21;100.00;100094.66;5244539;28;20020;-74
2022/10/21 07:41:27;;;;;;;13.18;8.52;;;;;;;13.25;100.00;100093.53;5244896;28;20020;-74
2022/10/21 07:43:58;;;;;;;16.80;8.98;;;;;;;13.23;100.00;100082.28;5244861;28;20536;-74
2022/10/21 07:46:29;;;;;;;14.00;9.23;;;;;;;13.25;100.00;100079.59;5243662;28;20033;-73
2022/10/21 07:48:59;;;;;;;12.43;8.68;;;;;;;13.33;100.00;100077.38;5241753;28;20086;-74
2022/10/21 07:51:30;;;;;;;15.70;9.50;;;;;;;13.38;100.00;100086.72;5244520;28;20028;-74
2022/10/21 07:54:00;;;;;;;13.05;9.23;;;;;;;13.68;100.00;100085.03;5244357;28;20036;-74
2022/10/21 07:56:34;;;;;;;15.07;9.70;;;;;;;14.07;100.00;100072.25;5244147;28;20323;-73
2022/10/21 07:59:05;;;;;;;14.10;9.05;;;;;;;14.45;100.00;100076.13;5242110;28;20117;-74
2022/10/21 08:01:35;;;;;;;13.13;9.00;;;;;;;14.93;100.00;100081.94;5244354;28;20385;-74
2022/10/21 08:04:05;;;;;;;12.65;8.00;;;;;;;15.49;100.00;100067.91;5243878;28;20040;-74
2022/10/21 08:06:36;;;;;;;11.77;7.13;;;;;;;15.72;100.00;100064.66;5225155;28;20036;-74
2022/10/21 08:09:06;;;;;;;15.38;6.65;;;;;;;16.33;100.00;100059.66;5243728;28;20036;-74
2022/10/21 08:11:36;;;;;;;10.20;6.30;;;;;;;16.92;100.00;100050.25;5242803;28;20037;-74
2022/10/21 08:14:08;;;;;;;10.20;5.18;;;;;;;17.61;100.00;100044.38;5243558;28;20048;-74
2022/10/21 08:16:39;;;;;;;12.18;5.35;;;;;;;17.88;100.00;100045.88;5243665;28;20115;-74
2022/10/21 08:19:17;;;;;;;8.85;5.07;;;;;;;17.77;100.00;100051.13;5243416;28;20032;-74
2022/10/21 08:21:48;;;;;;;9.48;4.90;;;;;;;17.43;100.00;100048.38;5243480;28;20020;-74
2022/10/21 08:24:18;;;;;;;9.48;4.25;;;;;;;17.09;100.00;100046.41;5243834;28;20394;-74
2022/10/21 08:26:50;;;;;;;8.80;4.43;;;;;;;17.18;100.00;100040.47;5243613;28;20108;-74
2022/10/21 08:29:20;;;;;;;9.60;4.53;;;;;;;16.98;100.00;100046.34;5241118;28;20402;-74
2022/10/21 08:31:51;;;;;;;7.30;4.18;;;;;;;16.62;100.00;100048.03;5243285;28;20295;-74
2022/10/21 08:34:21;;;;;;;7.35;3.92;;;;;;;16.40;100.00;100039.88;5242959;28;20024;-74
2022/10/21 08:36:51;;;;;;;6.55;3.60;;;;;;;16.29;100.00;100045.84;5243299;28;20335;-74
2022/10/21 08:39:23;;;;;;;10.40;4.53;;;;;;;15.92;100.00;100043.97;5243571;28;20060;-74
2022/10/21 08:41:54;;;;;;;10.27;5.05;;;;;;;15.67;100.00;100038.59;5243352;28;20028;-74
2022/10/21 08:44:30;;;;;;;11.43;4.60;;;;;;;15.64;100.00;100037.94;5243002;28;20077;-75
2022/10/21 08:47:10;;;;;;;8.27;4.43;;;;;;;15.53;100.00;100029.91;5239637;28;20616;-74
2022/10/21 08:49:47;;;;;;;8.32;4.40;;;;;;;15.59;100.00;100024.22;5222784;28;20074;-74
2022/10/21 08:52:22;;;;;;;6.50;4.50;;;;;;;15.72;100.00;100020.69;5242788;28;20039;-74
2022/10/21 08:54:59;;;;;;;11.18;5.03;;;;;;;16.05;100.00;100034.28;5241311;28;20510;-73
2022/10/21 08:57:33;;;;;;;6.97;4.03;;;;;;;16.36;100.00;100031.31;5240207;28;20044;-74
2022/10/21 09:00:18;;;;;;;7.60;4.22;;;;;;;16.71;100.00;100021.84;5242452;28;20028;-73
2022/10/21 09:03:11;;;;;;;8.25;3.95;;;;;;;16.88;100.00;100021.50;5242307;28;20086;-74
2022/10/21 09:06:08;;;;;;;8.75;4.30;;;;;;;17.08;100.00;100027.09;5241753;28;20026;-74
2022/10/21 09:08:53;;;;;;;7.13;3.65;;;;;;;17.31;100.00;100020.19;5239617;28;20028;-74
2022/10/21 09:11:58;;;;;;;9.68;4.03;;;;;;;17.51;100.00;100017.78;5237837;28;20509;-74
2022/10/21 09:14:35;;;;;;;10.35;4.25;;;;;;;17.37;100.00;100022.41;5230939;28;20433;-75
2022/10/21 09:17:05;;;;;;;11.98;4.55;;;;;;;17.57;100.00;100024.44;5240595;28;20524;-74
2022/10/21 09:20:13;;;;;;;8.47;3.73;;;;;;;17.68;100.00;100020.06;5240976;28;20100;-74
2022/10/21 09:23:05;;;;;;;6.60;3.67;;;;;;;17.59;100.00;100022.53;5235737;28;20314;-74
2022/10/21 09:26:00;;;;;;;6.40;3.67;;;;;;;17.70;100.00;100012.88;5240178;28;20024;-75
2022/10/21 09:28:31;;;;;;;8.85;3.70;;;;;;;17.71;100.00;100009.28;5238957;28;20020;-74
2022/10/21 09:31:02;;;;;;;9.13;3.70;;;;;;;17.72;100.00;100015.38;5241403;28;20595;-74
2022/10/21 09:33:33;;;;;;;7.18;3.88;;;;;;;17.94;100.00;100015.47;5241454;28;20027;-75
2022/10/21 09:36:11;;;;;;;8.35;3.53;;;;;;;17.71;100.00;100019.84;5241193;28;20546;-74
2022/10/21 09:38:47;;;;;;;10.15;3.70;;;;;;;17.79;100.00;100014.00;5240158;28;20064;-75
2022/10/21 09:41:21;;;;;;;8.60;3.20;;;;;;;17.93;100.00;100008.50;5240671;28;20016;-75
2022/10/21 09:43:51;;;;;;;6.68;3.95;;;;;;;17.79;100.00;100014.81;5236017;28;20090;-75
2022/10/21 09:46:22;;;;;;;6.78;3.40;;;;;;;17.77;100.00;100022.03;5240462;28;20029;-74
2022/10/21 09:48:54;;;;;;;6.80;3.63;;;;;;;17.76;100.00;100022.13;5239827;28;20066;-75
2022/10/21 09:51:32;;;;;;;7.65;3.33;;;;;;;17.69;100.00;100021.72;5240398;28;20039;-75
2022/10/21 09:54:15;;;;;;;8.02;3.40;;;;;;;17.68;100.00;100021.88;5238928;28;20645;-75
2022/10/21 09:56:53;;;;;;;8.05;3.20;;;;;;;17.76;100.00;100024.78;5240315;28;20123;-74
2022/10/21 09:59:24;;;;;;;6.68;3.20;;;;;;;17.77;100.00;100021.19;5241211;28;20481;-74
2022/10/21 10:01:54;;;;;;;9.27;2.97;;;;;;;17.98;100.00;100024.91;5239860;28;20044;-74
2022/10/21 10:04:31;;;;;;;7.70;2.60;;;;;;;17.89;100.00;100021.13;5239906;28;20044;-74
2022/10/21 10:07:18;;;;;;;6.20;2.70;;;;;;;18.01;100.00;100020.19;5239659;28;21011;-74
2022/10/21 10:09:49;;;;;;;8.93;2.97;;;;;;;18.08;100.00;100023.22;5240041;28;20409;-75
2022/10/21 10:12:21;;;;;;;7.65;3.00;;;;;;;18.01;100.00;100024.66;5239128;28;20021;-75
2022/10/21 10:14:52;;;;;;;9.20;2.95;;;;;;;17.90;100.00;100021.97;5239267;28;20078;-74
2022/10/21 10:17:22;;;;;;;5.88;2.67;;;;;;;17.81;100.00;100027.94;5240070;28;20520;-75
2022/10/21 10:20:13;;;;;;;4.57;2.30;;;;;;;17.67;100.00;100022.81;5239559;28;20068;-74
2022/10/21 10:22:46;;;;;;;8.75;3.50;;;;;;;17.63;100.00;100029.28;5238664;28;20283;-75
2022/10/21 10:25:23;;;;;;;6.45;2.47;;;;;;;17.48;100.00;100017.19;5239619;28;20070;-74
2022/10/21 10:27:58;;;;;;;6.82;2.70;;;;;;;17.64;100.00;100023.06;5238019;28;20423;-74
2022/10/21 10:30:37;;;;;;;7.25;2.70;;;;;;;17.56;100.00;100028.03;5239865;28;20025;-74
2022/10/21 10:33:18;;;;;;;8.85;2.85;;;;;;;17.48;100.00;100030.41;5239997;28;20047;-74
2022/10/21 10:35:53;;;;;;;6.82;2.75;;;;;;;17.43;100.00;100041.28;5235292;28;20497;-74
2022/10/21 10:38:34;;;;;;;8.00;3.15;;;;;;;17.37;100.00;100035.59;5237343;28;20405;-74
2022/10/21 10:41:11;;;;;;;7.68;2.60;;;;;;;17.24;100.00;100037.41;5237335;28;20066;-73
2022/10/21 10:43:53;;;;;;;5.32;2.83;;;;;;;17.37;100.00;100030.31;5237865;28;20066;-73
2022/10/21 10:46:32;;;;;;;7.95;3.13;;;;;;;17.31;100.00;100026.28;5236202;28;20175;-73
2022/10/21 10:49:11;;;;;;;10.57;3.05;;;;;;;17.30;100.00;100029.06;5238123;28;20028;-73
2022/10/21 10:51:45;;;;;;;7.32;2.78;;;;;;;17.20;100.00;100025.38;5239322;28;20036;-73
2022/10/21 10:54:34;;;;;;;7.90;3.42;;;;;;;17.10;100.00;100025.19;5236379;28;20213;-73
2022/10/21 10:57:19;;;;;;;8.75;2.90;;;;;;;16.92;100.00;100025.63;5237458;28;20028;-73
2022/10/21 10:59:54;;;;;;;7.95;3.15;;;;;;;16.91;100.00;100024.78;5236264;28;20502;-74
2022/10/21 11:02:46;;;;;;;8.80;2.97;;;;;;;16.90;100.00;100024.88;5238523;28;20498;-73
2022/10/21 11:05:30;;;;;;;6.72;3.20;;;;;;;16.73;100.00;100022.56;5232611;28;20024;-73
2022/10/21 11:08:12;;;;;;;6.72;3.05;;;;;;;16.82;100.00;100025.41;5233049;28;20316;-73
2022/10/21 11:10:53;;;;;;;7.35;3.13;;;;;;;16.72;100.00;100026.16;5236467;28;20036;-73
2022/10/21 11:13:24;;;;;;;8.10;3.20;;;;;;;16.72;100.00;100023.53;5234361;28;20074;-73
2022/10/21 11:15:54;;;;;;;9.82;3.17;;;;;;;16.66;100.00;100031.88;5235432;28;20750;-73
2022/10/21 11:18:33;;;;;;;5.73;2.80;;;;;;;16.70;100.00;100030.72;5235523;28;20173;-73
2022/10/21 11:21:16;;;;;;;10.30;3.25;;;;;;;16.65;100.00;100029.34;5238197;28;20282;-73
2022/10/21 11:24:06;;;;;;;8.85;2.72;;;;;;;16.65;100.00;100024.91;5236731;28;20382;-73
2022/10/21 11:26:48;;;;;;;6.75;2.80;;;;;;;16.54;100.00;100014.25;5211390;28;20402;-72
2022/10/21 11:29:33;;;;;;;6.75;3.17;;;;;;;16.49;100.00;100013.72;5238564;28;20051;-73
2022/10/21 11:32:40;;;;;;;7.40;2.95;;;;;;;16.50;100.00;100015.41;5235795;28;20464;-73
2022/10/21 11:35:36;;;;;;;7.50;3.03;;;;;;;16.41;100.00;100010.75;5237142;28;20044;-73
2022/10/21 11:38:39;;;;;;;7.15;3.25;;;;;;;16.49;100.00;100005.81;5237242;28;20512;-73
2022/10/21 11:41:25;;;;;;;12.35;3.35;;;;;;;16.54;100.00;100005.50;5236815;28;20080;-73
2022/10/21 11:44:04;;;;;;;12.23;3.55;;;;;;;16.43;100.00;100000.09;5236701;28;20031;-73
2022/10/21 11:46:48;;;;;;;9.20;2.83;;;;;;;16.34;100.00;99996.28;5237247;28;20078;-73